Time;durP1;ratioP1;P1;durP2;ratioP2;P2;SDS_P1;SDS_P2;PMS_P1;PMS_P2;Temp;Humidity;BMP_temperature;BMP_pressure;BME280_temperature;BME280_humidity;BME280_pressure;Samples;Min_cycle;Max_cycle;Signal;HPM_P1;HPM_P2
2022/06/27 00:02:05;;;;;;;3.10;1.17;;;;;;;17.85;65.95;100121.72;5114718;28;20323;-76
2022/06/27 00:04:31;;;;;;;;;;;;;;;17.89;65.83;100117.00;5114703;28;20633;-76
2022/06/27 00:06:56;;;;;;;2.97;1.53;;;;;;;17.91;65.88;100119.38;5114700;28;19908;-76
2022/06/27 00:09:21;;;;;;;;;;;;;;;18.07;66.34;100139.16;5114690;28;20276;-75
2022/06/27 00:11:47;;;;;;;3.67;1.58;;;;;;;17.98;66.68;100153.28;5114467;28;19998;-76
2022/06/27 00:14:12;;;;;;;;;;;;;;;18.01;66.95;100147.00;5114731;28;20380;-76
2022/06/27 00:16:37;;;;;;;3.80;1.50;;;;;;;18.16;67.63;100145.13;5114484;28;19912;-76
2022/06/27 00:19:02;;;;;;;;;;;;;;;18.09;67.57;100156.09;5114551;28;20277;-76
2022/06/27 00:21:28;;;;;;;4.93;1.40;;;;;;;18.15;67.38;100157.34;5114232;28;19912;-76
2022/06/27 00:23:53;;;;;;;;;;;;;;;17.95;67.75;100156.00;5114726;28;20035;-76
2022/06/27 00:26:18;;;;;;;3.75;1.52;;;;;;;18.09;67.84;100158.84;5114165;28;19953;-76
2022/06/27 00:28:44;;;;;;;;;;;;;;;18.03;67.95;100160.41;5096030;28;20132;-76
2022/06/27 00:31:09;;;;;;;3.67;1.53;;;;;;;18.07;68.55;100166.72;5113902;28;19912;-76
2022/06/27 00:33:34;;;;;;;;;;;;;;;17.98;68.05;100178.09;5114525;28;20293;-76
2022/06/27 00:36:00;;;;;;;4.22;1.75;;;;;;;17.99;67.87;100173.38;5095746;28;19976;-76
2022/06/27 00:38:26;;;;;;;3.47;1.60;;;;;;;17.98;68.44;100177.28;5095734;28;20427;-76
2022/06/27 00:40:51;;;;;;;3.25;1.70;;;;;;;18.05;68.07;100169.06;5113853;28;20028;-76
2022/06/27 00:43:16;;;;;;;;;;;;;;;17.90;68.57;100161.88;5093142;28;20077;-76
2022/06/27 00:45:42;;;;;;;3.55;1.48;;;;;;;17.78;69.06;100162.16;5113844;28;19912;-76
2022/06/27 00:48:07;;;;;;;;;;;;;;;17.64;69.50;100151.84;5113966;28;20046;-76
2022/06/27 00:50:33;;;;;;;6.07;1.75;;;;;;;17.65;69.42;100145.94;5095547;28;19922;-76
2022/06/27 00:52:58;;;;;;;;;;;;;;;17.70;69.44;100142.84;5113885;28;20032;-76
2022/06/27 00:55:24;;;;;;;4.93;1.52;;;;;;;17.64;69.70;100149.06;5113398;28;19976;-76
2022/06/27 00:57:49;;;;;;;;;;;;;;;17.67;69.67;100146.34;5113859;28;20445;-76
2022/06/27 01:00:15;;;;;;;3.78;1.73;;;;;;;17.57;70.13;100149.78;5113945;28;19919;-76
2022/06/27 01:02:40;;;;;;;;;;;;;;;17.67;70.25;100140.84;5095688;28;20119;-76
2022/06/27 01:05:07;;;;;;;3.78;1.70;;;;;;;17.73;70.50;100135.78;5113452;28;19923;-76
2022/06/27 01:07:32;;;;;;;4.43;2.05;;;;;;;17.66;70.79;100150.28;5113398;28;20036;-76
2022/06/27 01:09:58;;;;;;;;;;;;;;;17.67;70.97;100145.56;5113265;28;20386;-76
2022/06/27 01:12:24;;;;;;;3.92;1.80;;;;;;;17.62;71.40;100141.16;5113335;28;19919;-76
2022/06/27 01:14:50;;;;;;;;;;;;;;;17.54;71.62;100136.78;5113535;28;20034;-76
2022/06/27 01:17:16;;;;;;;3.67;1.70;;;;;;;17.50;71.69;100133.22;5113528;28;19994;-76
2022/06/27 01:19:42;;;;;;;;;;;;;;;17.54;71.97;100136.00;5113479;28;20081;-76
2022/06/27 01:22:08;;;;;;;4.97;2.22;;;;;;;17.41;72.32;100143.75;5113224;28;19970;-76
2022/06/27 01:24:34;;;;;;;4.78;2.08;;;;;;;17.33;72.81;100136.63;5094847;28;20422;-76
2022/06/27 01:26:59;;;;;;;;;;;;;;;17.30;72.65;100140.09;5113686;28;20489;-76
2022/06/27 01:29:24;;;;;;;5.35;2.20;;;;;;;17.14;73.48;100127.41;5113493;28;19912;-76
2022/06/27 01:31:50;;;;;;;;;;;;;;;17.05;73.63;100126.91;5113578;28;20067;-77
2022/06/27 01:34:16;;;;;;;4.68;1.98;;;;;;;17.08;73.80;100130.88;5113028;28;19918;-76
2022/06/27 01:36:41;;;;;;;;;;;;;;;17.04;73.87;100135.53;5113174;28;20069;-76
2022/06/27 01:39:14;;;;;;;4.28;1.58;;;;;;;17.14;73.56;100143.13;5112840;28;19948;-76
2022/06/27 01:41:51;;;;;;;4.10;1.98;;;;;;;17.25;72.96;100148.72;5113035;28;20545;-77
2022/06/27 01:44:18;;;;;;;4.40;2.47;;;;;;;17.11;73.70;100147.41;5113054;28;20442;-76
2022/06/27 01:46:46;;;;;;;4.57;2.30;;;;;;;17.08;73.67;100136.38;5112734;28;20059;-76
2022/06/27 01:49:14;;;;;;;4.95;2.13;;;;;;;16.99;74.20;100133.16;5112656;28;20123;-76
2022/06/27 01:51:40;;;;;;;5.05;1.95;;;;;;;17.08;73.53;100122.63;5113004;28;20046;-77
2022/06/27 01:54:11;;;;;;;4.32;2.10;;;;;;;17.09;73.96;100122.22;5094720;28;20380;-76
2022/06/27 01:56:37;;;;;;;4.47;2.45;;;;;;;17.10;73.85;100129.31;5112830;28;20043;-77
2022/06/27 01:59:03;;;;;;;6.50;2.58;;;;;;;16.99;74.33;100133.16;5112766;28;20028;-76
2022/06/27 02:01:29;;;;;;;;;;;;;;;16.96;74.78;100137.41;5113171;28;20031;-76
2022/06/27 02:03:56;;;;;;;4.50;2.28;;;;;;;17.06;74.44;100144.22;5112760;28;19916;-77
2022/06/27 02:06:22;;;;;;;4.75;2.47;;;;;;;16.99;74.67;100124.91;5112857;28;20077;-77
2022/06/27 02:08:50;;;;;;;;;;;;;;;16.96;75.05;100120.91;5113188;28;20351;-76
2022/06/27 02:11:16;;;;;;;6.90;2.40;;;;;;;17.00;74.71;100113.50;5112684;28;20000;-77
2022/06/27 02:13:42;;;;;;;;;;;;;;;16.90;75.01;100114.19;5113432;28;20066;-77
2022/06/27 02:16:11;;;;;;;5.22;2.20;;;;;;;16.92;75.13;100100.06;5112711;28;19926;-76
2022/06/27 02:18:37;;;;;;;5.63;2.33;;;;;;;16.93;74.75;100096.94;5112938;28;20034;-77
2022/06/27 02:21:03;;;;;;;5.70;2.28;;;;;;;16.87;75.48;100084.69;5095916;28;20359;-76
2022/06/27 02:23:28;;;;;;;;;;;;;;;16.84;75.49;100079.97;5116838;28;20032;-76
2022/06/27 02:25:55;;;;;;;5.65;2.40;;;;;;;16.79;75.74;100070.06;5116688;28;19950;-77
2022/06/27 02:28:22;;;;;;;4.38;2.10;;;;;;;16.75;76.16;100058.25;5116700;28;20032;-76
2022/06/27 02:30:48;;;;;;;5.05;2.40;;;;;;;17.02;74.78;100072.66;5116295;28;20053;-76
2022/06/27 02:33:14;;;;;;;4.72;2.35;;;;;;;16.98;74.77;100066.34;5116469;28;20039;-77
2022/06/27 02:35:40;;;;;;;;;;;;;;;17.43;73.54;100080.84;5116719;28;20027;-76
2022/06/27 02:38:09;;;;;;;4.35;2.22;;;;;;;16.98;75.54;100069.09;5116120;28;19926;-76
2022/06/27 02:40:37;;;;;;;4.18;2.08;;;;;;;16.87;76.77;100075.66;5116364;28;20028;-76
2022/06/27 02:43:02;;;;;;;5.75;2.45;;;;;;;16.84;77.33;100078.00;5116379;28;20043;-77
2022/06/27 02:45:29;;;;;;;;;;;;;;;16.71;78.95;100079.44;5116712;28;20481;-76
2022/06/27 02:47:57;;;;;;;8.13;2.60;;;;;;;16.74;79.05;100080.63;5116215;28;20011;-77
2022/06/27 02:50:26;;;;;;;6.40;3.50;;;;;;;16.59;80.64;100081.59;5097960;28;20103;-75
2022/06/27 02:52:54;;;;;;;7.28;3.92;;;;;;;16.55;81.02;100076.88;5097866;28;20370;-76
2022/06/27 02:55:26;;;;;;;6.28;3.20;;;;;;;16.65;80.70;100069.13;5115875;28;20028;-77
2022/06/27 02:57:57;;;;;;;5.43;3.22;;;;;;;16.72;80.67;100047.22;5116068;28;20028;-76
2022/06/27 03:00:26;;;;;;;7.35;4.18;;;;;;;16.55;81.34;100052.13;5116203;28;20023;-76
2022/06/27 03:02:53;;;;;;;7.70;3.53;;;;;;;17.21;78.57;100049.63;5115715;28;20050;-76
2022/06/27 03:05:19;;;;;;;6.18;3.45;;;;;;;16.80;79.86;100049.69;5115820;28;20028;-76
2022/06/27 03:07:45;;;;;;;;;;;;;;;16.60;80.88;100058.44;5116381;28;20051;-76
2022/06/27 03:10:11;;;;;;;7.25;3.75;;;;;;;16.57;81.27;100042.72;5115494;28;19930;-76
2022/06/27 03:12:36;;;;;;;;;;;;;;;16.43;81.50;100035.09;5116046;28;20470;-76
2022/06/27 03:15:02;;;;;;;7.30;3.90;;;;;;;16.53;80.97;100035.22;5115590;28;20425;-76
2022/06/27 03:17:28;;;;;;;;;;;;;;;16.44;81.65;100037.47;5116251;28;20538;-76
2022/06/27 03:19:53;;;;;;;7.55;3.72;;;;;;;16.39;81.91;100046.06;5115860;28;19907;-77
2022/06/27 03:22:19;;;;;;;;;;;;;;;16.99;79.68;100048.66;5116076;28;20067;-76
2022/06/27 03:24:44;;;;;;;6.50;3.15;;;;;;;17.13;78.98;100040.56;5097301;28;19943;-76
2022/06/27 03:27:10;;;;;;;;;;;;;;;16.83;79.85;100034.38;5116078;28;20024;-76
2022/06/27 03:29:36;;;;;;;6.95;3.58;;;;;;;16.60;81.16;100031.75;5115261;28;19919;-75
2022/06/27 03:32:01;;;;;;;7.63;4.03;;;;;;;16.53;81.16;100035.22;5115172;28;20158;-76
2022/06/27 03:34:26;;;;;;;;;;;;;;;16.58;81.19;100027.81;5115574;28;20502;-76
2022/06/27 03:36:52;;;;;;;6.97;3.83;;;;;;;16.58;81.16;100036.03;5115400;28;19918;-77
2022/06/27 03:39:17;;;;;;;;;;;;;;;16.68;80.60;100049.16;5115522;28;20038;-76
2022/06/27 03:41:43;;;;;;;7.63;3.73;;;;;;;16.50;81.38;100068.97;5115110;28;19915;-76
2022/06/27 03:44:08;;;;;;;;;;;;;;;16.49;81.25;100061.09;5115465;28;20058;-76
2022/06/27 03:46:35;;;;;;;7.53;3.40;;;;;;;16.44;81.70;100059.44;5115201;28;19908;-76
2022/06/27 03:51:45;;;;;;;7.03;3.03;;;;;;;16.94;78.87;100060.00;5114933;28;20436;-76
2022/06/27 03:54:10;;;;;;;;;;;;;;;17.17;77.99;100059.84;5115224;28;20032;-76
2022/06/27 03:56:36;;;;;;;7.50;3.63;;;;;;;16.75;79.87;100072.00;5115025;28;19912;-75
2022/06/27 03:59:01;;;;;;;;;;;;;;;16.68;80.11;100068.41;5115096;28;20024;-76
2022/06/27 04:01:26;;;;;;;7.55;3.88;;;;;;;16.82;79.34;100063.84;5114523;28;19908;-76
2022/06/27 04:03:51;;;;;;;;;;;;;;;16.81;79.60;100072.47;5114950;28;20028;-76
2022/06/27 04:06:17;;;;;;;7.10;3.57;;;;;;;16.75;79.78;100073.97;5114537;28;20002;-76
2022/06/27 04:08:43;;;;;;;;;;;;;;;16.87;79.35;100081.16;5115001;28;20035;-76
2022/06/27 04:11:08;;;;;;;7.32;3.80;;;;;;;16.81;79.75;100080.72;5114441;28;19907;-76
2022/06/27 04:13:33;;;;;;;;;;;;;;;16.78;80.06;100084.97;5115184;28;20031;-76
2022/06/27 04:15:59;;;;;;;6.93;3.53;;;;;;;16.99;79.34;100083.63;5114327;28;20464;-76
2022/06/27 04:18:24;;;;;;;;;;;;;;;17.19;80.12;100081.47;5115052;28;20114;-76
2022/06/27 04:20:49;;;;;;;6.73;3.63;;;;;;;17.11;79.95;100081.38;5114534;28;19946;-76
2022/06/27 04:23:14;;;;;;;;;;;;;;;17.11;80.97;100078.63;5114797;28;20288;-76
2022/06/27 04:25:42;;;;;;;8.17;3.70;;;;;;;16.99;81.30;100089.94;5114162;28;19946;-76
2022/06/27 04:28:07;;;;;;;7.57;4.18;;;;;;;17.00;82.26;100086.00;5113923;28;20028;-76
2022/06/27 04:30:32;;;;;;;;;;;;;;;16.93;82.61;100091.41;5114711;28;20034;-76
2022/06/27 04:32:58;;;;;;;8.52;3.72;;;;;;;16.87;83.43;100097.66;5114193;28;19981;-76
2022/06/27 04:35:25;;;;;;;;;;;;;;;16.71;83.21;100093.16;5114392;28;20392;-76
2022/06/27 04:37:50;;;;;;;9.30;4.53;;;;;;;16.59;84.31;100098.09;5114115;28;19934;-76
2022/06/27 04:40:19;;;;;;;;;;;;;;;16.50;84.67;100104.69;5114728;28;20511;-76
2022/06/27 04:42:48;;;;;;;10.77;4.10;;;;;;;16.62;85.37;100100.88;5114001;28;19916;-76
2022/06/27 04:45:14;;;;;;;9.32;5.00;;;;;;;16.63;85.26;100087.94;5113563;28;20059;-76
2022/06/27 04:47:45;;;;;;;8.80;3.95;;;;;;;16.62;85.06;100089.88;5113611;28;20040;-77
2022/06/27 04:50:14;;;;;;;8.38;4.15;;;;;;;16.52;85.52;100085.88;5113579;28;20379;-76
2022/06/27 04:52:41;;;;;;;8.45;4.65;;;;;;;16.44;85.16;100075.94;5113848;28;20045;-77
2022/06/27 04:55:09;;;;;;;9.88;4.20;;;;;;;16.42;85.76;100061.00;5113773;28;20043;-76
2022/06/27 04:57:39;;;;;;;8.77;4.30;;;;;;;16.41;85.81;100054.72;5113292;28;20411;-77
2022/06/27 05:00:08;;;;;;;9.85;5.45;;;;;;;16.43;86.36;100049.63;5113713;28;20024;-76
2022/06/27 05:02:33;;;;;;;8.73;4.53;;;;;;;16.40;86.16;100053.13;5113141;28;20024;-76
2022/06/27 05:04:58;;;;;;;;;;;;;;;16.39;85.89;100061.75;5113784;28;20035;-77
2022/06/27 05:07:24;;;;;;;8.47;4.50;;;;;;;16.45;85.83;100054.75;5113883;28;19907;-76
2022/06/27 05:09:52;;;;;;;;;;;;;;;16.41;86.07;100059.41;5113751;28;20036;-77
2022/06/27 05:12:18;;;;;;;10.98;3.92;;;;;;;16.43;85.69;100057.09;5113110;28;19918;-77
2022/06/27 05:14:43;;;;;;;;;;;;;;;16.37;85.80;100048.38;5113802;28;20043;-76
2022/06/27 05:17:08;;;;;;;9.50;4.23;;;;;;;16.45;86.30;100044.53;5113115;28;19907;-77
2022/06/27 05:19:34;;;;;;;8.40;4.47;;;;;;;16.33;85.58;100009.09;5112658;28;20276;-76
2022/06/27 05:21:59;;;;;;;;;;;;;;;16.35;85.29;99994.97;5094995;28;20043;-76
2022/06/27 05:24:24;;;;;;;8.03;4.53;;;;;;;16.29;85.74;100005.50;5094484;28;19916;-76
2022/06/27 05:26:49;;;;;;;;;;;;;;;16.62;85.38;100018.41;5113451;28;20032;-76
2022/06/27 05:29:15;;;;;;;8.33;4.03;;;;;;;16.61;84.13;100027.81;5112899;28;19941;-76
2022/06/27 05:31:40;;;;;;;;;;;;;;;16.43;84.45;100024.91;5113201;28;20096;-77
2022/06/27 05:34:05;;;;;;;11.15;4.88;;;;;;;16.53;84.59;100026.97;5112962;28;19922;-76
2022/06/27 05:36:31;;;;;;;;;;;;;;;16.64;84.21;100021.59;5113071;28;20059;-76
2022/06/27 05:38:56;;;;;;;8.50;4.07;;;;;;;16.78;83.75;100008.00;5112812;28;20254;-76
2022/06/27 05:41:22;;;;;;;;;;;;;;;16.68;84.18;99997.72;5112845;28;20278;-76
2022/06/27 05:43:47;;;;;;;8.02;4.45;;;;;;;16.62;83.85;99998.38;5112533;28;19970;-77
2022/06/27 05:46:13;;;;;;;;;;;;;;;16.67;83.91;99995.34;5112947;28;20534;-76
2022/06/27 05:48:39;;;;;;;8.13;4.00;;;;;;;16.65;83.74;99986.66;5112795;28;20017;-76
2022/06/27 05:51:04;;;;;;;;;;;;;;;16.68;84.71;99981.22;5112975;28;20069;-76
2022/06/27 05:53:30;;;;;;;8.48;4.43;;;;;;;16.72;84.43;99989.50;5112424;28;19912;-76
2022/06/27 05:55:55;;;;;;;;;;;;;;;16.66;84.50;99988.22;5114013;28;20407;-76
2022/06/27 05:58:21;;;;;;;8.43;4.32;;;;;;;16.75;84.18;99996.97;5116429;28;20346;-76
2022/06/27 06:00:46;;;;;;;;;;;;;;;16.87;84.68;100004.94;5117079;28;20028;-76
2022/06/27 06:03:12;;;;;;;9.15;4.50;;;;;;;16.93;83.87;100019.91;5116371;28;19912;-76
2022/06/27 06:05:37;;;;;;;;;;;;;;;16.84;83.68;100027.72;5116964;28;20054;-76
2022/06/27 06:08:04;;;;;;;7.18;3.80;;;;;;;17.01;83.43;100043.59;5098404;28;20014;-76
2022/06/27 06:10:31;;;;;;;10.05;4.72;;;;;;;17.01;81.96;100056.53;5116431;28;20027;-76
2022/06/27 06:12:56;;;;;;;9.38;4.55;;;;;;;16.67;82.53;100075.84;5116604;28;20032;-76
2022/06/27 06:15:22;;;;;;;;;;;;;;;16.80;82.91;100070.88;5116856;28;20042;-76
2022/06/27 06:17:47;;;;;;;6.85;3.42;;;;;;;17.08;82.36;100064.84;5116302;28;19915;-76
2022/06/27 06:20:13;;;;;;;;;;;;;;;17.10;81.26;100022.03;5116606;28;20032;-76
2022/06/27 06:22:40;;;;;;;9.43;4.10;;;;;;;17.06;82.22;99987.41;5116318;28;19924;-77
2022/06/27 06:25:05;;;;;;;9.23;4.00;;;;;;;16.98;81.87;100044.34;5116557;28;20055;-77
2022/06/27 06:27:30;;;;;;;;;;;;;;;17.09;81.42;100089.22;5116233;28;20116;-77
2022/06/27 06:29:56;;;;;;;9.60;3.97;;;;;;;17.19;81.44;100107.00;5115966;28;19915;-76
2022/06/27 06:32:22;;;;;;;;;;;;;;;17.16;80.62;100104.22;5098122;28;20273;-76
2022/06/27 06:34:48;;;;;;;10.60;4.05;;;;;;;17.12;81.64;100104.97;5115945;28;19914;-76
2022/06/27 06:37:13;;;;;;;;;;;;;;;17.14;81.75;100102.66;5117651;28;20106;-78
2022/06/27 06:39:39;;;;;;;7.65;3.50;;;;;;;17.16;81.87;100109.72;5115913;28;19943;-79
2022/06/27 06:42:04;;;;;;;;;;;;;;;17.12;81.84;100115.19;5116248;28;20251;-79
2022/06/27 06:44:30;;;;;;;7.50;3.97;;;;;;;17.16;81.90;100129.00;5115940;28;19981;-79
2022/06/27 06:46:56;;;;;;;;;;;;;;;17.32;82.28;100132.28;5116036;28;20031;-79
2022/06/27 06:49:23;;;;;;;6.63;3.80;;;;;;;17.43;81.36;100136.69;5116013;28;20259;-80
2022/06/27 06:51:48;;;;;;;5.97;3.53;;;;;;;17.49;81.70;100128.09;5115529;28;20088;-80
2022/06/27 06:54:15;;;;;;;;;;;;;;;17.71;79.98;100141.69;5116437;28;20027;-79
2022/06/27 06:56:41;;;;;;;7.83;4.00;;;;;;;17.79;79.15;100149.97;5116139;28;19911;-80
2022/06/27 06:59:06;;;;;;;;;;;;;;;17.82;79.10;100149.25;5115982;28;20665;-79
2022/06/27 07:01:33;;;;;;;6.68;3.47;;;;;;;17.78;79.42;100151.16;5115170;28;20007;-80
2022/06/27 07:03:59;;;;;;;7.55;3.63;;;;;;;17.92;78.42;100152.06;5114918;28;20794;-80
2022/06/27 07:06:26;;;;;;;7.47;3.75;;;;;;;17.71;78.98;100157.41;5096210;28;20366;-80
2022/06/27 07:08:53;;;;;;;6.18;3.30;;;;;;;17.63;78.70;100151.00;5114856;28;20114;-80
2022/06/27 07:11:21;;;;;;;6.75;3.53;;;;;;;17.81;77.31;100123.66;5115503;28;20027;-80
2022/06/27 07:13:48;;;;;;;6.35;3.58;;;;;;;17.77;78.68;100127.53;5115344;28;20458;-79
2022/06/27 07:16:14;;;;;;;7.15;3.90;;;;;;;17.84;77.87;100108.34;5097030;28;20483;-80
2022/06/27 07:18:39;;;;;;;7.15;3.47;;;;;;;17.57;78.29;100116.75;5115285;28;20067;-79
2022/06/27 07:21:06;;;;;;;;;;;;;;;17.62;78.36;100126.63;5097086;28;20027;-80
2022/06/27 07:23:32;;;;;;;6.47;3.10;;;;;;;17.58;78.40;100136.81;5114667;28;19916;-80
2022/06/27 07:25:57;;;;;;;;;;;;;;;17.65;77.88;100148.69;5115674;28;20034;-79
2022/06/27 07:28:26;;;;;;;8.43;3.78;;;;;;;17.69;78.26;100138.53;5115398;28;19953;-80
2022/06/27 07:30:51;;;;;;;5.65;3.35;;;;;;;17.69;77.75;100135.78;5115230;28;20088;-79
2022/06/27 07:33:17;;;;;;;7.18;3.40;;;;;;;17.63;78.22;100139.22;5115180;28;20039;-79
2022/06/27 07:35:43;;;;;;;;;;;;;;;17.53;78.24;100140.72;5115359;28;20030;-78
2022/06/27 07:38:09;;;;;;;9.05;3.83;;;;;;;17.57;78.26;100129.72;5114909;28;19962;-81
2022/06/27 07:40:35;;;;;;;;;;;;;;;17.57;79.32;100126.97;5115029;28;20477;-81
2022/06/27 07:43:00;;;;;;;8.63;4.27;;;;;;;17.40;79.23;100139.41;5114917;28;19958;-81
2022/06/27 07:45:27;;;;;;;;;;;;;;;17.45;78.98;100131.59;5115392;28;20063;-80
2022/06/27 07:47:54;;;;;;;9.70;4.53;;;;;;;17.63;78.39;100130.94;5114809;28;20303;-80
2022/06/27 07:50:39;;;;;;;11.40;5.10;;;;;;;17.59;78.44;100121.88;5114291;28;20119;-80
2022/06/27 07:53:14;;;;;;;8.43;4.95;;;;;;;17.58;78.05;100123.06;5096258;28;20032;-80
2022/06/27 07:55:48;;;;;;;7.65;4.70;;;;;;;17.53;78.39;100118.69;5114473;28;20028;-80
2022/06/27 07:58:16;;;;;;;7.60;4.35;;;;;;;17.63;78.53;100112.47;5114289;28;20031;-79
2022/06/27 08:00:49;;;;;;;10.00;5.10;;;;;;;17.65;78.75;100118.41;5114630;28;20172;-80
2022/06/27 08:06:00;;;;;;;8.00;4.32;;;;;;;17.87;78.22;100107.56;5114339;28;20074;-79
2022/06/27 08:08:27;;;;;;;8.57;4.18;;;;;;;17.89;78.20;100099.69;5114404;28;20028;-80
2022/06/27 08:10:54;;;;;;;6.95;3.88;;;;;;;17.77;78.67;100106.31;5114293;28;20024;-80
2022/06/27 08:13:20;;;;;;;8.70;4.22;;;;;;;17.85;78.68;100120.94;5114361;28;20035;-80
2022/06/27 08:15:47;;;;;;;9.43;4.85;;;;;;;17.77;78.30;100128.34;5114192;28;20511;-80
2022/06/27 08:18:14;;;;;;;6.35;3.72;;;;;;;17.70;78.79;100148.34;5113174;28;20059;-80
2022/06/27 08:20:40;;;;;;;7.47;3.85;;;;;;;17.73;77.81;100152.31;5113987;28;20031;-80
2022/06/27 08:23:07;;;;;;;7.97;3.97;;;;;;;17.72;78.46;100162.53;5113924;28;20081;-80
2022/06/27 08:25:33;;;;;;;6.70;3.78;;;;;;;17.82;77.80;100165.75;5114109;28;20031;-80
2022/06/27 08:27:59;;;;;;;9.35;3.90;;;;;;;17.76;78.03;100181.84;5113835;28;20023;-80
2022/06/27 08:30:25;;;;;;;7.10;3.92;;;;;;;17.88;77.64;100184.28;5113503;28;20026;-80
2022/06/27 08:32:59;;;;;;;7.38;3.60;;;;;;;17.80;77.49;100171.63;5113533;28;20489;-80
2022/06/27 08:35:25;;;;;;;8.15;4.47;;;;;;;17.78;78.05;100175.94;5095359;28;20035;-80
2022/06/27 08:37:51;;;;;;;6.65;3.40;;;;;;;17.76;77.21;100186.56;5113324;28;20061;-81
2022/06/27 08:40:17;;;;;;;;;;;;;;;17.48;78.78;100187.09;5114119;28;20449;-80
2022/06/27 08:42:44;;;;;;;6.90;3.72;;;;;;;17.64;78.88;100185.66;5113661;28;19962;-80
2022/06/27 08:45:11;;;;;;;10.68;4.05;;;;;;;17.52;78.53;100199.72;5113456;28;20536;-80
2022/06/27 08:47:37;;;;;;;6.88;3.80;;;;;;;17.64;78.39;100213.19;5113430;28;20031;-80
2022/06/27 08:50:04;;;;;;;5.97;3.63;;;;;;;17.68;79.39;100225.06;5095260;28;20063;-80
2022/06/27 08:52:31;;;;;;;9.05;4.40;;;;;;;17.67;77.90;100234.47;5113546;28;20114;-80
2022/06/27 08:54:56;;;;;;;8.63;4.28;;;;;;;17.66;78.65;100230.13;5113277;28;20073;-81
2022/06/27 08:57:22;;;;;;;6.68;3.72;;;;;;;17.66;78.50;100232.88;5094797;28;20032;-78
2022/06/27 08:59:50;;;;;;;;;;;;;;;17.89;76.55;100240.19;5113879;28;20032;-79
2022/06/27 09:02:17;;;;;;;9.80;4.57;;;;;;;17.70;78.20;100238.44;5112933;28;19915;-79
2022/06/27 09:04:57;;;;;;;6.63;3.80;;;;;;;17.81;78.19;100238.53;5113107;28;20089;-80
2022/06/27 09:07:23;;;;;;;8.82;4.10;;;;;;;17.83;78.00;100241.72;5113124;28;20119;-79
2022/06/27 09:09:49;;;;;;;8.73;4.78;;;;;;;17.57;78.28;100251.66;5113165;28;20500;-79
2022/06/27 09:12:15;;;;;;;9.02;4.50;;;;;;;17.72;78.46;100247.91;5113318;28;20110;-79
2022/06/27 09:14:43;;;;;;;7.88;4.50;;;;;;;17.86;78.46;100243.69;5113177;28;20035;-79
2022/06/27 09:17:15;;;;;;;11.45;5.43;;;;;;;17.86;78.02;100227.16;5113139;28;20031;-79
2022/06/27 09:19:56;;;;;;;8.20;4.22;;;;;;;17.96;77.94;100223.69;5112647;28;20032;-78
2022/06/27 09:22:24;;;;;;;8.95;4.90;;;;;;;17.99;78.11;100209.97;5113083;28;20115;-78
2022/06/27 09:25:06;;;;;;;10.50;5.40;;;;;;;18.49;75.55;100220.53;5094580;28;20525;-78
2022/06/27 09:27:51;;;;;;;12.32;6.70;;;;;;;18.45;75.27;100234.28;5112791;28;20066;-78
2022/06/27 09:30:23;;;;;;;11.27;5.85;;;;;;;18.16;76.30;100235.28;5112652;28;20036;-78
2022/06/27 09:32:55;;;;;;;10.18;6.13;;;;;;;18.08;76.72;100241.91;5113097;28;20035;-78
2022/06/27 09:35:27;;;;;;;10.65;6.15;;;;;;;18.01;76.88;100232.41;5112926;28;20035;-79
2022/06/27 09:37:56;;;;;;;12.02;5.70;;;;;;;17.96;77.62;100223.69;5094811;28;20055;-78
2022/06/27 09:40:27;;;;;;;9.98;6.03;;;;;;;18.14;77.27;100229.34;5113406;28;20045;-79
2022/06/27 09:42:57;;;;;;;13.93;7.18;;;;;;;18.14;77.30;100235.66;5113149;28;20046;-78
2022/06/27 09:45:24;;;;;;;11.35;6.55;;;;;;;17.98;77.05;100232.41;5113128;28;20127;-79
2022/06/27 09:47:57;;;;;;;12.20;7.00;;;;;;;17.93;77.93;100235.47;5112545;28;20035;-78
2022/06/27 09:50:23;;;;;;;13.43;7.28;;;;;;;17.99;78.04;100217.44;5113006;28;20034;-79
2022/06/27 09:52:50;;;;;;;12.52;6.97;;;;;;;18.16;77.18;100216.00;5113052;28;20023;-79
2022/06/27 09:55:19;;;;;;;11.13;6.10;;;;;;;18.24;77.24;100204.63;5112851;28;20047;-79
2022/06/27 09:57:46;;;;;;;10.63;5.75;;;;;;;18.44;76.34;100201.56;5112782;28;20106;-79
2022/06/27 10:00:13;;;;;;;11.35;6.88;;;;;;;18.41;76.65;100196.84;5112687;28;20043;-80
2022/06/27 10:02:39;;;;;;;11.40;6.72;;;;;;;18.55;75.60;100205.19;5094648;28;20455;-79
2022/06/27 10:05:05;;;;;;;12.20;6.97;;;;;;;18.37;76.35;100215.34;5112890;28;20047;-78
2022/06/27 10:07:31;;;;;;;12.68;7.18;;;;;;;18.31;77.10;100223.19;5112735;28;20036;-79
2022/06/27 10:09:56;;;;;;;11.45;6.05;;;;;;;18.39;76.81;100227.53;5112406;28;20027;-78
2022/06/27 10:12:34;;;;;;;12.45;6.93;;;;;;;18.44;76.62;100227.19;5112535;28;20093;-79
2022/06/27 10:15:09;;;;;;;9.82;6.07;;;;;;;18.66;76.36;100219.84;5094216;28;20489;-78
2022/06/27 10:17:41;;;;;;;11.80;6.85;;;;;;;18.61;75.63;100209.16;5112527;28;20027;-81
2022/06/27 10:20:12;;;;;;;11.00;5.93;;;;;;;18.68;76.00;100184.41;5112602;28;20050;-80
2022/06/27 10:22:38;;;;;;;12.50;6.50;;;;;;;18.96;74.53;100182.91;5112967;28;20038;-79
2022/06/27 10:25:25;;;;;;;12.05;6.07;;;;;;;19.01;73.33;100188.06;5112466;28;20393;-79
2022/06/27 10:28:12;;;;;;;12.73;7.05;;;;;;;18.69;74.38;100201.75;5112536;28;20027;-80
2022/06/27 10:30:58;;;;;;;12.07;6.65;;;;;;;18.57;73.99;100202.84;5112240;28;20485;-80
2022/06/27 10:33:26;;;;;;;13.07;7.60;;;;;;;18.55;73.82;100208.75;5112329;28;20195;-80
2022/06/27 10:35:54;;;;;;;14.18;6.50;;;;;;;18.96;72.64;100210.50;5112387;28;20257;-80
2022/06/27 10:38:22;;;;;;;13.43;7.65;;;;;;;19.01;72.88;100210.94;5112341;28;20047;-80
2022/06/27 10:40:47;;;;;;;13.60;6.90;;;;;;;18.98;73.22;100211.72;5112550;28;20027;-81
2022/06/27 10:43:35;;;;;;;13.85;6.50;;;;;;;18.95;73.14;100212.47;5096885;28;20051;-80
2022/06/27 10:46:00;;;;;;;13.45;7.50;;;;;;;18.93;74.31;100212.88;5115911;28;20027;-80
2022/06/27 10:48:52;;;;;;;11.80;6.38;;;;;;;19.01;73.73;100216.47;5116135;28;20528;-79
2022/06/27 10:51:28;;;;;;;15.05;7.72;;;;;;;18.86;73.78;100221.13;5104854;28;20035;-79
2022/06/27 10:53:59;;;;;;;11.05;6.70;;;;;;;18.93;73.62;100226.66;5116162;28;20039;-81
2022/06/27 10:56:52;;;;;;;13.65;7.68;;;;;;;19.21;72.82;100230.69;5116047;28;20066;-79
2022/06/27 10:59:17;;;;;;;14.20;7.40;;;;;;;19.08;72.92;100240.50;5115839;28;20023;-81
2022/06/27 11:02:02;;;;;;;14.97;7.60;;;;;;;18.93;71.63;100240.47;5115984;28;20024;-80
2022/06/27 11:04:30;;;;;;;13.63;7.68;;;;;;;18.98;71.02;100235.72;5115879;28;20757;-81
2022/06/27 11:07:03;;;;;;;15.18;7.80;;;;;;;19.08;70.96;100237.75;5115484;28;20354;-79
2022/06/27 11:09:46;;;;;;;12.70;7.45;;;;;;;19.14;69.53;100244.47;5115448;28;20034;-80
2022/06/27 11:12:17;;;;;;;12.38;7.45;;;;;;;19.17;68.53;100243.72;5115568;28;20067;-79
2022/06/27 11:14:48;;;;;;;11.85;6.30;;;;;;;19.61;68.14;100256.44;5115339;28;20031;-80
2022/06/27 11:17:34;;;;;;;13.48;7.78;;;;;;;19.31;69.96;100260.28;5115512;28;20052;-80
2022/06/27 11:20:21;;;;;;;15.05;7.55;;;;;;;19.16;69.94;100255.94;5115588;28;20034;-80
2022/06/27 11:22:52;;;;;;;;;;;;;;;19.29;70.76;100257.13;5115841;28;20054;-79
2022/06/27 11:25:21;;;;;;;12.70;6.88;;;;;;;19.62;69.72;100246.97;5115566;28;19950;-80
2022/06/27 11:33:46;;;;;;;14.18;6.95;;;;;;;19.35;70.66;100246.53;5115427;28;20066;-80
2022/06/27 11:36:13;;;;;;;11.85;6.78;;;;;;;19.16;70.90;100245.69;5115430;28;20087;-80
2022/06/27 11:38:48;;;;;;;12.23;6.97;;;;;;;19.20;71.18;100254.75;5115242;28;20032;-80
2022/06/27 11:41:26;;;;;;;11.82;7.07;;;;;;;19.34;70.92;100250.47;5114836;28;20056;-79
2022/06/27 11:44:02;;;;;;;9.98;6.20;;;;;;;19.37;70.56;100244.94;5114961;28;20035;-79
2022/06/27 11:46:31;;;;;;;11.02;6.32;;;;;;;19.47;69.63;100243.38;5114982;28;20024;-79
2022/06/27 11:49:07;;;;;;;10.63;6.07;;;;;;;19.59;70.55;100245.00;5115411;28;20452;-80
2022/06/27 11:51:36;;;;;;;11.70;5.97;;;;;;;19.68;70.02;100243.47;5115128;28;20020;-80
2022/06/27 11:54:06;;;;;;;8.82;5.68;;;;;;;19.61;69.73;100237.13;5114778;28;20134;-79
2022/06/27 11:56:34;;;;;;;9.75;5.75;;;;;;;19.57;69.37;100241.84;5115199;28;20061;-80